• Join FlightAware (Why Join?)
  • Login
  • US Flag 
06:50AM EDT


 

Airport Tracker/Info


-or-


 

Live Flight TrackerFlight Track Log ✈ CCA4406 ✈ 05-Jun-2013 ✈ ZULS / LXA - ZUUU / CTU

Flight Track Log - Related Links

Times and Time Zones

All times are in EDT time to prevent confusion due to time zone crossing. See the CCA4406 flight status page for this flight to view local times or setup timezone preferences in your user account.

Time Position Orientation Groundspeed Altitude Reporting Facility
EDT Latitude Longitude Course Direction KTS MPH feet Rate Location/Type
02:59AM 29.3727 91.4210 80° East  Level Estimated
03:00AM 29.3911 91.5484 81° East  Level Estimated
03:01AM 29.4094 91.6758 81° East  Level Estimated
03:02AM 29.4276 91.8033 81° East  Level Estimated
03:03AM 29.4456 91.9308 81° East  Level Estimated
03:04AM 29.4636 92.0583 81° East  Level Estimated
03:05AM 29.4814 92.1860 81° East  Level Estimated
03:06AM 29.4991 92.3136 81° East  Level Estimated
03:07AM 29.5167 92.4413 81° East  Level Estimated
03:08AM 29.5341 92.5690 81° East  Level Estimated
03:09AM 29.5514 92.6968 81° East  Level Estimated
03:10AM 29.5686 92.8247 81° East  Level Estimated
03:11AM 29.5857 92.9525 81° East  Level Estimated
03:12AM 29.6027 93.0804 81° East  Level Estimated
03:13AM 29.6195 93.2084 81° East  Level Estimated
03:14AM 29.6362 93.3364 81° East  Level Estimated
03:15AM 29.6528 93.4644 81° East  Level Estimated
03:16AM 29.6693 93.5925 82° East  Level Estimated
03:17AM 29.6856 93.7206 82° East  Level Estimated
03:18AM 29.7019 93.8488 82° East  Level Estimated
03:19AM 29.7180 93.9770 82° East  Level Estimated
03:20AM 29.7339 94.1053 82° East  Level Estimated
03:21AM 29.7498 94.2336 82° East  Level Estimated
03:22AM 29.7655 94.3619 82° East  Level Estimated
03:23AM 29.7811 94.4903 82° East  Level Estimated
03:24AM 29.7966 94.6187 82° East  Level Estimated
03:25AM 29.8120 94.7471 82° East  Level Estimated
03:26AM 29.8272 94.8756 82° East  Level Estimated
03:27AM 29.8423 95.0041 82° East  Level Estimated
03:28AM 29.8573 95.1327 82° East  Level Estimated
03:29AM 29.8721 95.2613 82° East  Level Estimated
03:30AM 29.8869 95.3900 82° East  Level Estimated
03:31AM 29.9015 95.5186 83° East  Level Estimated
03:32AM 29.9160 95.6474 83° East  Level Estimated
03:33AM 29.9303 95.7761 83° East  Level Estimated
03:34AM 29.9445 95.9049 83° East  Level Estimated
03:35AM 29.9587 96.0337 83° East  Level Estimated
03:36AM 29.9726 96.1626 83° East  Level Estimated
03:37AM 29.9865 96.2915 83° East  Level Estimated
03:38AM 30.0002 96.4204 83° East  Level Estimated
03:39AM 30.0138 96.5494 83° East  Level Estimated
03:40AM 30.0273 96.6784 83° East  Level Estimated
03:41AM 30.0407 96.8075 83° East  Level Estimated
03:42AM 30.0539 96.9365 83° East  Level Estimated
03:43AM 30.0670 97.0657 83° East  Level Estimated
03:44AM 30.0800 97.1948 83° East  Level Estimated
03:45AM 30.0928 97.3240 83° East  Level Estimated
03:46AM 30.1055 97.4532 83° East  Level Estimated
03:47AM 30.1181 97.5825 84° East  Level Estimated
03:48AM 30.1306 97.7117 84° East  Level Estimated
03:49AM 30.1430 97.8410 84° East  Level Estimated
03:50AM 30.1552 97.9704 84° East  Level Estimated
03:51AM 30.1673 98.0998 84° East  Level Estimated
03:52AM 30.1792 98.2292 84° East  Level Estimated
03:53AM 30.1911 98.3586 84° East  Level Estimated
03:54AM 30.2028 98.4881 84° East  Level Estimated
03:55AM 30.2143 98.6176 84° East  Level Estimated
03:56AM 30.2258 98.7471 84° East  Level Estimated
03:57AM 30.2371 98.8767 84° East  Level Estimated
03:58AM 30.2483 99.0063 84° East  Level Estimated
03:59AM 30.2594 99.1359 84° East  Level Estimated
04:00AM 30.2703 99.2655 84° East  Level Estimated
04:01AM 30.2812 99.3952 84° East  Level Estimated
04:02AM 30.2918 99.5249 85° East  Level Estimated
04:03AM 30.3024 99.6546 85° East  Level Estimated
04:04AM 30.3128 99.7844 85° East  Level Estimated
04:05AM 30.3231 99.9142 85° East  Level Estimated
04:06AM 30.3333 100.0440 85° East  Level Estimated
04:07AM 30.3434 100.1739 85° East  Level Estimated
04:08AM 30.3533 100.3037 85° East  Level Estimated
04:09AM 30.3631 100.4336 85° East  Level Estimated
04:10AM 30.3727 100.5636 85° East  Level Estimated
04:11AM 30.3823 100.6935 85° East  Level Estimated
04:12AM 30.3917 100.8235 85° East  Level Estimated
04:13AM 30.4010 100.9535 85° East  Level Estimated
04:14AM 30.4101 101.0835 85° East  Level Estimated
04:15AM 30.4191 101.2135 85° East  Level Estimated
04:16AM 30.4280 101.3436 85° East  Level Estimated
04:17AM 30.4368 101.4737 86° East  Level Estimated
04:18AM 30.4454 101.6038 86° East  Level Estimated
04:19AM 30.4539 101.7340 86° East  Level Estimated
04:20AM 30.4623 101.8641 86° East  Level Estimated
04:21AM 30.4705 101.9943 86° East  Level Estimated
04:22AM 30.4786 102.1245 86° East  Level Estimated
04:23AM 30.4866 102.2547 86° East  Level Estimated
04:24AM 30.4945 102.3850 86° East  Level Estimated
04:25AM 30.5022 102.5153 86° East  Level Estimated
04:26AM 30.5098 102.6456 86° East  Level Estimated
04:27AM 30.5173 102.7759 86° East  Level Estimated
04:28AM 30.5246 102.9062 86° East  Level Estimated
04:29AM 30.5318 103.0365 86° East  Level Estimated
04:30AM 30.5389 103.1669 86° East  Level Estimated
04:31AM 30.5459 103.2973 86° East  Level Estimated
04:32AM 30.5527 103.4277 86° East  Level Estimated
04:33AM 30.5594 103.5581 87° East  Level Estimated
04:34AM 30.5659 103.6886 87° East  Level Estimated
04:35AM 30.5723 103.8190 87° East  Level Estimated
04:36AM 30.5785 103.9471 87° East  Level Estimated
04:37AM 30.5785 103.9471 240° Southwest  Level Estimated
04:38AM 30.5785 103.9471 240° Southwest  Level Estimated
04:39AM 30.5785 103.9471 240° Southwest  Level Estimated
04:40AM 30.5785 103.9471 240° Southwest  Level Estimated
04:41AM 30.5785 103.9471 240° Southwest  Level Estimated